메인 페이지
METAR-TAF:

METAR-TAF

공항 :

애버딘, 스코틀랜드

위도: 57-12N, 경도: 002-13W, 고도: 65m

현재 날씨관측

예보는 17분 전, 17:20시(UTC)에 발표되었습니다.
남동6kt풍과 남남동풍을 오가는
온도 15°C
습도 67%
기압 1021 hPa
시정 10km 이상
고도 4300ft 상공 흐림

METAR: EGPD 231720Z AUTO 14006KT 100V160 9999 OVC043 15/09 Q1021

시각: 18:37 (17:37 UTC)

예보

예보는 39분 전, 16:58시(UTC)에 발표되었습니다.
예보 대상 시간: 23일 18시부터 24일 18시까지 (UTC)
남동9kt
시정 10km 이상
고도 3500ft 상공 구름 보통
확률 40% :
일시적
24일 03시부터 24일 12시까지 (UTC)
시정: 8000m
고도 400ft 상공 구름 많음

TAF: EGPD 231658Z 2318/2418 14009KT 9999 SCT035 PROB40 TEMPO 2403/2412 8000 BKN004

4,000개 이상의 공항 관측 자료 및 예보 (METAR 및 TAF 보고).

지도상에서 검색 가능한 기상관측소가 노란 점과 빨간 점으로 표시되어 있습니다.

기상관측소 명을 보려면 표시 위로 마우스를 이동하세요.

날씨 관측과 예보를 보려면 클릭하세요.

지도 변경 : 확대하려면 엑스 표시가 있는 녹색 버튼, 축소하려면 빼기 표시가 있는 녹색 버튼, 다음 페이지의 지도를 보려면 녹색 화살표를 클릭하세요.


METAR-TAF: